createdAt,value
2023-01-10T00:01:49.982Z,56.27
2023-01-10T00:04:16.553Z,55.24
2023-01-10T00:06:43.117Z,54.60
2023-01-10T00:09:10.592Z,55.21
2023-01-10T00:11:55.633Z,55.50
2023-01-10T00:14:22.179Z,55.76
2023-01-10T00:16:48.729Z,55.65
2023-01-10T00:19:15.280Z,55.14
2023-01-10T00:21:41.844Z,54.47
2023-01-10T00:24:20.474Z,53.24
2023-01-10T00:26:51.194Z,52.77
2023-01-10T00:29:23.288Z,52.83
2023-01-10T00:31:50.423Z,53.27
2023-01-10T00:34:17.381Z,53.09
2023-01-10T00:36:45.552Z,53.15
2023-01-10T00:39:12.116Z,53.48
2023-01-10T00:41:58.016Z,53.34
2023-01-10T00:44:24.846Z,54.10
2023-01-10T00:46:52.960Z,54.52
2023-01-10T00:49:19.687Z,53.24
2023-01-10T00:51:46.256Z,54.63
2023-01-10T00:56:58.316Z,54.05
2023-01-10T00:59:24.939Z,55.19
2023-01-10T01:01:52.214Z,54.87
2023-01-10T01:04:18.910Z,56.57
2023-01-10T01:06:47.535Z,55.58
2023-01-10T01:09:14.699Z,54.79
2023-01-10T01:11:41.232Z,55.32
2023-01-10T01:14:07.759Z,55.36
2023-01-10T01:16:34.352Z,55.14
2023-01-10T01:19:00.857Z,55.97
2023-01-10T01:21:28.282Z,55.41
2023-01-10T01:23:58.627Z,55.46
2023-01-10T01:26:25.480Z,57.01
2023-01-10T01:28:52.558Z,56.27
2023-01-10T01:31:19.389Z,57.05
2023-01-10T01:33:46.560Z,56.64
2023-01-10T01:36:13.662Z,57.28
2023-01-10T01:38:41.261Z,55.96
2023-01-10T01:41:28.466Z,56.15
2023-01-10T01:44:02.935Z,55.80
2023-01-10T01:46:30.630Z,56.58
2023-01-10T01:48:57.392Z,56.88
2023-01-10T01:51:29.088Z,56.25
2023-01-10T01:54:01.331Z,55.76
2023-01-10T01:56:34.999Z,56.90
2023-01-10T01:59:08.372Z,57.56
2023-01-10T02:01:38.097Z,56.37
2023-01-10T02:04:13.373Z,57.23
2023-01-10T02:06:41.290Z,56.78
2023-01-10T02:09:18.279Z,55.65
2023-01-10T02:11:45.125Z,55.06
2023-01-10T02:14:13.707Z,54.29
2023-01-10T02:16:40.246Z,54.32
2023-01-10T02:19:18.473Z,54.18
2023-01-10T02:22:23.767Z,54.20
2023-01-10T02:25:08.984Z,53.65
2023-01-10T02:28:12.943Z,53.72
2023-01-10T02:31:11.464Z,53.85
2023-01-10T02:34:13.129Z,53.60
2023-01-10T02:37:13.066Z,55.55
2023-01-10T02:39:51.841Z,54.24
2023-01-10T02:42:42.618Z,54.35
2023-01-10T02:45:38.869Z,54.41
2023-01-10T02:48:05.641Z,54.73
2023-01-10T02:50:45.337Z,55.10
2023-01-10T02:53:22.861Z,55.87
2023-01-10T02:56:07.869Z,56.76
2023-01-10T02:58:48.172Z,55.66
2023-01-10T03:01:56.409Z,55.03
2023-01-10T03:04:38.540Z,55.25
2023-01-10T03:07:05.019Z,54.82
2023-01-10T03:09:51.537Z,55.50
2023-01-10T03:12:25.229Z,56.56
2023-01-10T03:14:54.361Z,55.48
2023-01-10T03:17:23.294Z,55.11
2023-01-10T03:19:54.692Z,54.72
2023-01-10T03:22:24.962Z,55.08
2023-01-10T03:24:55.865Z,55.57
2023-01-10T03:27:25.151Z,54.98
2023-01-10T03:29:59.828Z,55.20
2023-01-10T03:32:30.207Z,54.76
2023-01-10T03:34:59.680Z,54.24
2023-01-10T03:37:42.235Z,54.57
2023-01-10T03:40:18.757Z,54.97
2023-01-10T03:43:19.101Z,55.63
2023-01-10T03:45:58.776Z,55.94
2023-01-10T03:48:30.158Z,55.93
2023-01-10T03:51:00.293Z,56.64
2023-01-10T03:53:26.995Z,56.53
2023-01-10T03:55:54.607Z,55.21
2023-01-10T03:58:21.903Z,54.84
2023-01-10T04:00:49.206Z,54.50
2023-01-10T04:03:16.884Z,55.48
2023-01-10T04:05:43.461Z,55.03
2023-01-10T04:08:10.017Z,55.23
2023-01-10T04:10:37.737Z,55.34
2023-01-10T04:13:05.807Z,55.61
2023-01-10T04:15:32.818Z,57.22
2023-01-10T04:17:59.757Z,57.71
2023-01-10T04:20:29.745Z,58.16
2023-01-10T04:22:56.282Z,57.79
2023-01-10T04:25:23.511Z,57.73
2023-01-10T04:27:51.998Z,58.21
2023-01-10T04:30:19.852Z,58.34
2023-01-10T04:32:47.842Z,57.88
2023-01-10T04:35:14.881Z,56.96
2023-01-10T04:37:41.367Z,58.04
2023-01-10T04:40:08.662Z,57.95
2023-01-10T04:42:35.216Z,57.83
2023-01-10T04:45:01.745Z,57.64
2023-01-10T04:47:28.290Z,57.70
2023-01-10T04:49:54.870Z,57.92
2023-01-10T04:52:21.758Z,58.05
2023-01-10T04:54:48.293Z,57.97
2023-01-10T04:57:14.823Z,56.27
2023-01-10T04:59:41.344Z,56.75
2023-01-10T05:02:08.011Z,57.68
2023-01-10T05:04:34.602Z,56.94
2023-01-10T05:07:01.458Z,57.41
2023-01-10T05:09:27.988Z,56.08
2023-01-10T05:11:55.284Z,56.64
2023-01-10T05:14:22.025Z,55.62
2023-01-10T05:16:48.578Z,55.27
2023-01-10T05:19:15.137Z,55.18
2023-01-10T05:21:41.631Z,57.28
2023-01-10T05:24:09.258Z,57.40
2023-01-10T05:26:35.786Z,56.64
2023-01-10T05:29:02.476Z,56.66
2023-01-10T05:31:29.297Z,56.37
2023-01-10T05:33:55.831Z,57.79
2023-01-10T05:36:22.415Z,57.46
2023-01-10T05:38:49.008Z,58.00
2023-01-10T05:41:15.551Z,57.88
2023-01-10T05:43:42.242Z,56.62
2023-01-10T05:46:09.124Z,56.53
2023-01-10T05:48:36.170Z,56.36
2023-01-10T05:51:03.673Z,56.92
2023-01-10T05:53:30.174Z,57.46
2023-01-10T05:55:58.657Z,56.30
2023-01-10T05:58:25.627Z,58.19
2023-01-10T06:00:52.893Z,58.03
2023-01-10T06:03:19.520Z,58.25
2023-01-10T06:05:48.649Z,56.87
2023-01-10T06:08:15.975Z,56.60
2023-01-10T06:10:43.306Z,55.83
2023-01-10T06:13:10.388Z,57.43
2023-01-10T06:15:37.171Z,57.82
2023-01-10T06:18:04.056Z,57.21
2023-01-10T06:20:31.055Z,56.33
2023-01-10T06:23:00.944Z,56.31
2023-01-10T06:25:29.237Z,55.78
2023-01-10T06:27:56.330Z,55.97
2023-01-10T06:30:23.220Z,56.11
2023-01-10T06:32:50.737Z,55.61
2023-01-10T06:35:19.825Z,57.36
2023-01-10T06:37:46.325Z,56.82
2023-01-10T06:40:12.893Z,55.92
2023-01-10T06:42:40.486Z,57.12
2023-01-10T06:45:07.344Z,56.71
2023-01-10T06:47:33.984Z,57.18
2023-01-10T06:50:00.524Z,55.56
2023-01-10T06:52:27.635Z,56.80
2023-01-10T06:54:54.191Z,57.33
2023-01-10T06:57:21.316Z,56.78
2023-01-10T06:59:47.919Z,56.13
2023-01-10T07:02:14.585Z,56.68
2023-01-10T07:04:41.646Z,56.06
2023-01-10T07:07:08.190Z,58.12
2023-01-10T07:09:34.714Z,57.14
2023-01-10T07:12:01.422Z,56.48
2023-01-10T07:14:27.976Z,56.83
2023-01-10T07:16:54.576Z,57.04
2023-01-10T07:19:21.332Z,56.19
2023-01-10T07:21:47.873Z,57.60
2023-01-10T07:24:14.602Z,57.03
2023-01-10T07:26:41.510Z,56.50
2023-01-10T07:29:08.285Z,56.22
2023-01-10T07:31:34.955Z,56.91
2023-01-10T07:34:01.559Z,57.11
2023-01-10T07:36:28.124Z,57.26
2023-01-10T07:38:54.892Z,56.84
2023-01-10T07:41:21.377Z,57.06
2023-01-10T07:43:49.024Z,56.60
2023-01-10T07:46:16.025Z,56.45
2023-01-10T07:48:42.632Z,58.02
2023-01-10T07:51:10.000Z,56.26
2023-01-10T07:53:36.911Z,54.95
2023-01-10T07:56:03.925Z,55.42
2023-01-10T07:58:31.038Z,53.76
2023-01-10T08:01:02.530Z,53.94
2023-01-10T08:03:33.704Z,53.64
2023-01-10T08:06:02.443Z,53.06
2023-01-10T08:08:29.586Z,53.95
2023-01-10T08:10:57.204Z,53.90
2023-01-10T08:13:24.184Z,53.36
2023-01-10T08:15:51.764Z,53.78
2023-01-10T08:18:20.664Z,53.75
2023-01-10T08:20:49.620Z,53.90
2023-01-10T08:23:16.971Z,54.43
2023-01-10T08:25:44.015Z,54.64
2023-01-10T08:28:11.477Z,54.58
2023-01-10T08:30:38.845Z,54.03
2023-01-10T08:33:06.854Z,54.17
2023-01-10T08:35:41.605Z,53.55
2023-01-10T08:38:09.485Z,54.68
2023-01-10T08:40:36.073Z,53.87
2023-01-10T08:43:05.057Z,54.39
2023-01-10T08:45:32.472Z,53.87
2023-01-10T08:47:59.128Z,53.67
2023-01-10T08:50:26.085Z,53.82
2023-01-10T08:52:52.625Z,53.38
2023-01-10T08:55:20.511Z,52.76
2023-01-10T08:57:47.066Z,53.85
2023-01-10T09:00:14.949Z,53.86
2023-01-10T09:02:42.054Z,53.31
2023-01-10T09:05:18.525Z,52.81
2023-01-10T09:07:52.852Z,51.94
2023-01-10T09:10:19.448Z,51.67
2023-01-10T09:12:54.626Z,52.61
2023-01-10T09:15:26.936Z,53.01
2023-01-10T09:17:58.307Z,53.26
2023-01-10T09:20:27.044Z,53.70
2023-01-10T09:22:54.017Z,53.57
2023-01-10T09:25:21.110Z,53.79
2023-01-10T09:27:47.629Z,54.78
2023-01-10T09:30:14.629Z,54.70
2023-01-10T09:32:41.246Z,54.64
2023-01-10T09:35:08.507Z,54.12
2023-01-10T09:37:35.009Z,54.78
2023-01-10T09:40:01.563Z,54.57
2023-01-10T09:42:47.572Z,54.38
2023-01-10T09:45:32.846Z,53.76
2023-01-10T09:48:09.435Z,54.77
2023-01-10T09:51:23.690Z,54.33
2023-01-10T09:53:57.777Z,54.35
2023-01-10T09:56:29.322Z,55.16
2023-01-10T09:58:57.359Z,56.44
2023-01-10T10:01:29.349Z,55.76
2023-01-10T10:04:04.963Z,56.60
2023-01-10T10:06:34.360Z,56.01
2023-01-10T10:09:03.628Z,55.63
2023-01-10T10:11:53.114Z,55.13
2023-01-10T10:14:28.852Z,56.29
2023-01-10T10:17:20.050Z,56.68
2023-01-10T10:20:03.154Z,55.30
2023-01-10T10:23:02.251Z,55.49
2023-01-10T10:25:56.518Z,55.50
2023-01-10T10:28:54.963Z,54.28
2023-01-10T10:31:39.955Z,53.85
2023-01-10T10:34:36.400Z,52.89
2023-01-10T10:37:21.519Z,53.57
2023-01-10T10:40:03.833Z,54.87
2023-01-10T10:42:38.505Z,54.31
2023-01-10T10:45:15.192Z,55.39
2023-01-10T10:47:50.269Z,54.46
2023-01-10T10:50:35.007Z,55.05
2023-01-10T10:53:05.331Z,54.52
2023-01-10T10:55:36.327Z,53.78
2023-01-10T10:58:05.780Z,54.52
2023-01-10T11:00:32.518Z,55.78
2023-01-10T11:03:05.344Z,54.53
2023-01-10T11:05:44.438Z,55.00
2023-01-10T11:08:14.025Z,54.42
2023-01-10T11:10:44.633Z,54.33
2023-01-10T11:13:22.272Z,54.99
2023-01-10T11:15:50.342Z,54.63
2023-01-10T11:18:20.942Z,54.44
2023-01-10T11:21:04.722Z,54.65
2023-01-10T11:23:40.556Z,54.37
2023-01-10T11:26:10.749Z,53.77
2023-01-10T11:28:38.185Z,53.95
2023-01-10T11:31:04.778Z,53.86
2023-01-10T11:33:35.826Z,54.84
2023-01-10T11:36:08.783Z,54.53
2023-01-10T11:38:35.373Z,53.41
2023-01-10T11:41:16.917Z,51.88
2023-01-10T11:43:43.479Z,52.29
2023-01-10T11:46:17.805Z,50.84
2023-01-10T11:49:05.515Z,50.38
2023-01-10T11:52:25.925Z,50.70
2023-01-10T11:55:00.056Z,52.08
2023-01-10T11:57:30.318Z,52.42
2023-01-10T12:00:01.083Z,52.02
2023-01-10T12:02:32.865Z,51.52
2023-01-10T12:05:02.738Z,50.80
2023-01-10T12:07:29.444Z,51.33
2023-01-10T12:10:01.400Z,52.00
2023-01-10T12:12:35.099Z,53.85
2023-01-10T12:15:23.125Z,52.26
2023-01-10T12:17:50.029Z,53.13
2023-01-10T12:20:16.926Z,53.54
2023-01-10T12:22:47.366Z,53.72
2023-01-10T12:25:35.989Z,53.30
2023-01-10T12:28:02.521Z,52.80
2023-01-10T12:30:35.757Z,52.52
2023-01-10T12:33:19.304Z,51.86
2023-01-10T12:36:37.227Z,51.61
2023-01-10T12:39:14.305Z,51.92
2023-01-10T12:42:22.955Z,52.59
2023-01-10T12:44:58.345Z,51.85
2023-01-10T12:47:25.194Z,52.97
2023-01-10T12:50:13.932Z,51.99
2023-01-10T12:52:48.917Z,53.33
2023-01-10T12:55:20.803Z,53.31
2023-01-10T12:57:51.744Z,53.39
2023-01-10T13:00:26.544Z,53.61
2023-01-10T13:02:57.391Z,53.44
2023-01-10T13:05:27.067Z,52.21
2023-01-10T13:08:04.600Z,52.66
2023-01-10T13:10:33.587Z,52.89
2023-01-10T13:13:12.424Z,54.00
2023-01-10T13:15:47.335Z,52.73
2023-01-10T13:18:29.324Z,52.47
2023-01-10T13:21:13.656Z,53.85
2023-01-10T13:23:48.623Z,53.41
2023-01-10T13:26:15.587Z,54.16
2023-01-10T13:28:55.996Z,53.07
2023-01-10T13:31:29.568Z,54.28
2023-01-10T13:34:00.681Z,53.64
2023-01-10T13:36:30.032Z,53.29
2023-01-10T13:38:58.943Z,53.69
2023-01-10T13:42:16.071Z,52.78
2023-01-10T13:45:00.978Z,53.51
2023-01-10T13:47:39.568Z,53.91
2023-01-10T13:50:42.145Z,54.51
2023-01-10T13:53:08.674Z,53.91
2023-01-10T13:55:53.716Z,53.37
2023-01-10T13:58:43.404Z,52.72
2023-01-10T14:01:55.015Z,52.83
2023-01-10T14:04:31.367Z,52.73
2023-01-10T14:07:04.033Z,53.10
2023-01-10T14:09:36.396Z,52.08
2023-01-10T14:12:07.670Z,53.25
2023-01-10T14:14:38.103Z,53.29
2023-01-10T14:17:22.884Z,53.15
2023-01-10T14:20:00.861Z,53.27
2023-01-10T14:22:30.983Z,53.52
2023-01-10T14:25:00.099Z,53.67
2023-01-10T14:27:38.036Z,53.12
2023-01-10T14:30:07.400Z,53.13
2023-01-10T14:32:38.362Z,52.20
2023-01-10T14:35:10.850Z,51.96
2023-01-10T14:37:44.984Z,52.39
2023-01-10T14:40:15.384Z,53.06
2023-01-10T14:42:42.002Z,52.72
2023-01-10T14:45:36.562Z,53.15
2023-01-10T14:48:23.778Z,52.93
2023-01-10T14:50:50.652Z,53.49
2023-01-10T14:53:28.908Z,52.87
2023-01-10T14:55:55.741Z,52.42
2023-01-10T14:58:22.882Z,53.14
2023-01-10T15:00:51.741Z,52.98
2023-01-10T15:03:20.594Z,51.96
2023-01-10T15:05:54.492Z,51.73
2023-01-10T15:08:28.226Z,52.01
2023-01-10T15:11:00.714Z,51.70
2023-01-10T15:13:29.583Z,52.12
2023-01-10T15:15:57.530Z,52.08
2023-01-10T15:18:28.487Z,52.87
2023-01-10T15:20:56.852Z,52.13
2023-01-10T15:23:27.116Z,51.71
2023-01-10T15:26:00.167Z,51.82
2023-01-10T15:28:29.914Z,51.34
2023-01-10T15:30:58.280Z,52.01
2023-01-10T15:33:29.943Z,52.69
2023-01-10T15:36:03.188Z,53.95
2023-01-10T15:38:34.519Z,54.03
2023-01-10T15:41:05.880Z,55.04
2023-01-10T15:43:34.535Z,54.70
2023-01-10T15:46:04.970Z,54.31
2023-01-10T15:48:37.412Z,56.08
2023-01-10T15:51:13.426Z,54.88
2023-01-10T15:54:14.180Z,55.03
2023-01-10T15:56:48.262Z,55.26
2023-01-10T15:59:36.836Z,54.81
2023-01-10T16:02:13.455Z,54.79
2023-01-10T16:04:40.658Z,54.93
2023-01-10T16:07:15.243Z,55.89
2023-01-10T16:09:42.608Z,55.86
2023-01-10T16:12:42.996Z,55.55
2023-01-10T16:15:17.686Z,55.87
2023-01-10T16:17:44.269Z,54.16
2023-01-10T16:20:16.012Z,53.49
2023-01-10T16:22:43.813Z,53.39
2023-01-10T16:25:20.460Z,53.68
2023-01-10T16:27:47.352Z,54.86
2023-01-10T16:30:28.993Z,55.18
2023-01-10T16:32:57.324Z,55.22
2023-01-10T16:35:24.891Z,54.33
2023-01-10T16:37:56.287Z,54.09
2023-01-10T16:40:28.700Z,54.57
2023-01-10T16:43:14.787Z,54.64
2023-01-10T16:45:41.345Z,55.13
2023-01-10T16:48:08.162Z,54.34
2023-01-10T16:50:35.024Z,53.66
2023-01-10T16:53:01.671Z,55.43
2023-01-10T16:55:37.220Z,56.19
2023-01-10T16:58:03.841Z,55.59
2023-01-10T17:00:30.387Z,55.68
2023-01-10T17:02:58.247Z,54.48
2023-01-10T17:05:25.138Z,55.53
2023-01-10T17:07:51.639Z,54.76
2023-01-10T17:10:18.183Z,54.00
2023-01-10T17:12:45.655Z,53.47
2023-01-10T17:15:14.570Z,54.54
2023-01-10T17:17:44.587Z,54.15
2023-01-10T17:20:15.900Z,54.87
2023-01-10T17:22:43.156Z,54.24
2023-01-10T17:25:15.704Z,55.38
2023-01-10T17:27:43.257Z,54.67
2023-01-10T17:30:11.634Z,54.39
2023-01-10T17:32:38.471Z,54.40
2023-01-10T17:35:05.691Z,53.87
2023-01-10T17:37:32.247Z,53.61
2023-01-10T17:39:58.969Z,52.75
2023-01-10T17:42:48.318Z,53.73
2023-01-10T17:45:14.819Z,53.88
2023-01-10T17:47:41.351Z,52.98
2023-01-10T17:50:08.323Z,52.44
2023-01-10T17:52:35.233Z,53.22
2023-01-10T17:55:03.368Z,54.16
2023-01-10T17:57:29.942Z,53.77
2023-01-10T17:59:56.730Z,54.10
2023-01-10T18:02:23.412Z,52.97
2023-01-10T18:04:50.088Z,53.05
2023-01-10T18:07:16.639Z,53.46
2023-01-10T18:09:43.148Z,53.19
2023-01-10T18:12:09.869Z,52.84
2023-01-10T18:14:36.408Z,52.59
2023-01-10T18:17:05.225Z,52.17
2023-01-10T18:19:32.370Z,51.72
2023-01-10T18:21:58.907Z,53.11
2023-01-10T18:24:25.831Z,53.89
2023-01-10T18:26:52.348Z,53.77
2023-01-10T18:29:19.010Z,53.05
2023-01-10T18:31:45.693Z,52.62
2023-01-10T18:34:12.204Z,53.69
2023-01-10T18:36:40.022Z,51.61
2023-01-10T18:39:06.630Z,51.59
2023-01-10T18:41:33.165Z,52.72
2023-01-10T18:44:00.671Z,53.17
2023-01-10T18:46:28.592Z,52.07
2023-01-10T18:48:55.711Z,52.12
2023-01-10T18:51:23.629Z,52.18
2023-01-10T18:53:52.688Z,53.34
2023-01-10T18:56:19.762Z,52.52
2023-01-10T18:58:46.389Z,52.54
2023-01-10T19:01:17.094Z,51.79
2023-01-10T19:03:44.398Z,51.36
2023-01-10T19:06:16.714Z,52.27
2023-01-10T19:08:45.069Z,51.73
2023-01-10T19:11:15.424Z,52.61
2023-01-10T19:13:47.209Z,51.52
2023-01-10T19:16:19.551Z,52.63
2023-01-10T19:18:52.014Z,52.01
2023-01-10T19:21:19.057Z,52.86
2023-01-10T19:23:47.910Z,53.78
2023-01-10T19:26:15.387Z,53.96
2023-01-10T19:28:43.137Z,53.60
2023-01-10T19:31:14.820Z,52.53
2023-01-10T19:33:43.458Z,53.25
2023-01-10T19:36:10.838Z,53.00
2023-01-10T19:38:37.523Z,54.19
2023-01-10T19:41:04.635Z,53.97
2023-01-10T19:43:32.514Z,55.11
2023-01-10T19:45:59.850Z,55.61
2023-01-10T19:48:26.444Z,55.88
2023-01-10T19:50:52.982Z,56.86
2023-01-10T19:53:23.745Z,57.48
2023-01-10T19:56:00.195Z,58.10
2023-01-10T19:58:26.817Z,58.91
2023-01-10T20:00:53.361Z,58.57
2023-01-10T20:03:19.965Z,57.85
2023-01-10T20:05:46.669Z,56.81
2023-01-10T20:08:13.666Z,58.51
2023-01-10T20:10:40.225Z,58.92
2023-01-10T20:13:08.404Z,58.28
2023-01-10T20:15:36.178Z,59.95
2023-01-10T20:18:02.688Z,58.38
2023-01-10T20:20:29.294Z,60.13
2023-01-10T20:22:55.855Z,59.90
2023-01-10T20:25:22.438Z,58.56
2023-01-10T20:27:49.100Z,59.07
2023-01-10T20:30:16.121Z,59.88
2023-01-10T20:32:42.648Z,59.69
2023-01-10T20:35:09.378Z,60.22
2023-01-10T20:37:35.933Z,61.21
2023-01-10T20:40:04.306Z,60.52
2023-01-10T20:42:32.453Z,60.13
2023-01-10T20:44:58.994Z,63.54
2023-01-10T20:47:27.013Z,62.17
2023-01-10T20:49:53.562Z,62.12
2023-01-10T20:52:22.046Z,62.17
2023-01-10T20:54:48.644Z,62.80
2023-01-10T20:57:15.178Z,62.09
2023-01-10T20:59:41.699Z,62.24
2023-01-10T21:02:10.578Z,61.58
2023-01-10T21:04:37.242Z,61.88
2023-01-10T21:07:05.654Z,61.82
2023-01-10T21:09:32.294Z,62.31
2023-01-10T21:12:13.623Z,62.03
2023-01-10T21:14:45.295Z,62.54
2023-01-10T21:17:11.896Z,61.95
2023-01-10T21:19:38.641Z,61.53
2023-01-10T21:22:05.422Z,59.94
2023-01-10T21:24:31.926Z,60.83
2023-01-10T21:26:58.439Z,61.55
2023-01-10T21:29:24.962Z,63.07
2023-01-10T21:31:53.030Z,62.64
2023-01-10T21:34:19.555Z,62.82
2023-01-10T21:36:46.077Z,62.54
2023-01-10T21:39:12.605Z,62.22
2023-01-10T21:41:57.897Z,62.56
2023-01-10T21:44:25.759Z,63.24
2023-01-10T21:46:52.347Z,63.71
2023-01-10T21:49:19.007Z,63.71
2023-01-10T21:51:45.545Z,64.80
2023-01-10T21:54:12.293Z,63.11
2023-01-10T21:56:38.834Z,63.50
2023-01-10T21:59:05.343Z,64.96
2023-01-10T22:01:31.971Z,63.52
2023-01-10T22:03:58.882Z,62.95
2023-01-10T22:06:25.450Z,63.38
2023-01-10T22:08:52.942Z,62.70
2023-01-10T22:11:19.719Z,63.38
2023-01-10T22:13:46.971Z,62.92
2023-01-10T22:16:14.035Z,63.07
2023-01-10T22:18:40.613Z,64.91
2023-01-10T22:21:07.305Z,63.10
2023-01-10T22:23:34.613Z,62.84
2023-01-10T22:26:04.022Z,63.60
2023-01-10T22:28:30.870Z,63.44
2023-01-10T22:30:57.785Z,62.35
2023-01-10T22:33:27.533Z,64.62
2023-01-10T22:35:54.051Z,64.79
2023-01-10T22:38:21.119Z,64.74
2023-01-10T22:40:47.656Z,64.30
2023-01-10T22:43:14.185Z,65.93
2023-01-10T22:45:44.228Z,64.25
2023-01-10T22:48:10.813Z,63.93
2023-01-10T22:50:37.668Z,63.97
2023-01-10T22:53:04.277Z,64.19
2023-01-10T22:55:30.859Z,64.78
2023-01-10T22:57:57.625Z,63.40
2023-01-10T23:00:24.166Z,63.58
2023-01-10T23:02:50.728Z,63.66
2023-01-10T23:05:17.425Z,64.43
2023-01-10T23:07:43.949Z,62.85
2023-01-10T23:10:28.354Z,62.84
2023-01-10T23:12:56.107Z,61.04
2023-01-10T23:15:22.621Z,62.26
2023-01-10T23:17:49.257Z,62.96
2023-01-10T23:20:16.711Z,57.07
2023-01-10T23:22:43.493Z,40.80
2023-01-10T23:25:10.276Z,37.87
2023-01-10T23:27:38.339Z,47.70
2023-01-10T23:30:10.410Z,55.30
2023-01-10T23:32:37.118Z,59.33
2023-01-10T23:35:04.101Z,61.33
2023-01-10T23:37:30.618Z,63.88
2023-01-10T23:39:57.178Z,62.21
2023-01-10T23:42:23.675Z,61.47
2023-01-10T23:44:50.212Z,60.43
2023-01-10T23:47:16.742Z,61.84
2023-01-10T23:49:43.274Z,61.07
2023-01-10T23:52:09.810Z,61.41
2023-01-10T23:54:36.791Z,61.07
2023-01-10T23:57:03.692Z,61.79
2023-01-10T23:59:30.277Z,61.27
